Terminal Aerodrome Forecast
Issued by NWS

Home | Current Version | Previous Version | Graphics & Text | Print | Product List | Glossary On
Versions: 1 2 3 4 5 6 7 8 9 10 11 12 13
000
FTUS45 KGGW 201720
TAFOLF
TAF
KOLF 201720Z 2018/2118 24016G24KT P6SM FEW160
     FM210100 23009KT P6SM SCT100
     FM211400 27008KT P6SM BKN130=

USA.gov is the U.S. government's official web portal to all federal, state and local government web resources and services.